createdAt,value
2018-03-07T00:00:46.129Z,9.01
2018-03-07T00:01:46.134Z,8.99
2018-03-07T00:02:46.143Z,8.91
2018-03-07T00:03:46.148Z,8.90
2018-03-07T00:04:46.171Z,8.88
2018-03-07T00:05:46.150Z,8.84
2018-03-07T00:06:46.167Z,8.93
2018-03-07T00:07:46.163Z,8.81
2018-03-07T00:08:46.177Z,8.86
2018-03-07T00:09:46.175Z,8.93
2018-03-07T00:10:46.175Z,8.87
2018-03-07T00:11:46.177Z,8.86
2018-03-07T00:12:46.212Z,8.90
2018-03-07T00:13:46.176Z,8.86
2018-03-07T00:14:46.191Z,8.87
2018-03-07T00:15:46.190Z,9.05
2018-03-07T00:16:46.198Z,8.96
2018-03-07T00:17:46.225Z,8.91
2018-03-07T00:18:46.197Z,9.01
2018-03-07T00:19:46.200Z,9.02
2018-03-07T00:20:46.228Z,9.02
2018-03-07T00:21:46.219Z,9.01
2018-03-07T00:22:46.215Z,9.09
2018-03-07T00:23:46.225Z,9.09
2018-03-07T00:24:46.233Z,9.09
2018-03-07T00:25:46.226Z,9.06
2018-03-07T00:26:46.236Z,9.02
2018-03-07T00:27:46.234Z,9.06
2018-03-07T00:28:46.234Z,9.02
2018-03-07T00:29:46.237Z,9.04
2018-03-07T00:30:46.254Z,9.02
2018-03-07T00:31:46.249Z,8.96
2018-03-07T00:32:47.124Z,8.87
2018-03-07T00:33:46.263Z,8.93
2018-03-07T00:34:46.272Z,8.88
2018-03-07T00:35:46.269Z,8.86
2018-03-07T00:36:46.271Z,8.83
2018-03-07T00:37:46.267Z,8.90
2018-03-07T00:38:46.292Z,8.76
2018-03-07T00:39:46.285Z,8.86
2018-03-07T00:40:46.282Z,8.93
2018-03-07T00:41:46.290Z,8.87
2018-03-07T00:42:46.288Z,8.86
2018-03-07T00:43:46.302Z,8.96
2018-03-07T00:44:46.359Z,8.97
2018-03-07T00:45:46.299Z,8.83
2018-03-07T00:46:46.304Z,8.97
2018-03-07T00:47:46.331Z,9.04
2018-03-07T00:48:46.314Z,8.99
2018-03-07T00:49:46.325Z,9.01
2018-03-07T00:50:46.315Z,8.96
2018-03-07T00:51:46.322Z,9.02
2018-03-07T00:52:46.328Z,8.99
2018-03-07T00:53:46.330Z,8.94
2018-03-07T00:54:46.334Z,8.99
2018-03-07T00:55:46.339Z,9.04
2018-03-07T00:56:46.352Z,8.94
2018-03-07T00:57:46.347Z,8.88
2018-03-07T00:58:46.350Z,8.87
2018-03-07T00:59:46.356Z,8.86
2018-03-07T01:00:46.358Z,8.91
2018-03-07T01:01:46.374Z,8.96
2018-03-07T01:02:47.044Z,8.88
2018-03-07T01:03:46.366Z,8.87
2018-03-07T01:04:46.368Z,8.96
2018-03-07T01:05:46.380Z,8.97
2018-03-07T01:06:46.376Z,8.96
2018-03-07T01:07:46.413Z,9.01
2018-03-07T01:08:46.382Z,8.99
2018-03-07T01:09:46.387Z,9.06
2018-03-07T01:10:46.394Z,9.01
2018-03-07T01:11:46.404Z,9.02
2018-03-07T01:12:46.408Z,8.96
2018-03-07T01:13:46.410Z,9.05
2018-03-07T01:14:46.418Z,8.97
2018-03-07T01:15:46.415Z,8.91
2018-03-07T01:16:46.430Z,8.86
2018-03-07T01:17:46.437Z,8.87
2018-03-07T01:18:46.430Z,8.90
2018-03-07T01:19:46.460Z,8.73
2018-03-07T01:20:46.438Z,8.81
2018-03-07T01:21:46.469Z,8.73
2018-03-07T01:22:46.445Z,8.71
2018-03-07T01:23:46.452Z,8.71
2018-03-07T01:24:46.463Z,8.69
2018-03-07T01:25:46.453Z,8.57
2018-03-07T01:26:46.462Z,8.62
2018-03-07T01:27:46.468Z,8.57
2018-03-07T01:28:46.484Z,8.58
2018-03-07T01:29:46.484Z,8.57
2018-03-07T01:30:46.482Z,8.66
2018-03-07T01:31:46.472Z,8.58
2018-03-07T01:32:46.480Z,8.53
2018-03-07T01:33:46.483Z,8.50
2018-03-07T01:34:46.485Z,8.55
2018-03-07T01:35:46.485Z,8.50
2018-03-07T01:36:46.524Z,8.51
2018-03-07T01:37:46.500Z,8.51
2018-03-07T01:38:46.506Z,8.53
2018-03-07T01:39:46.507Z,8.48
2018-03-07T01:40:46.507Z,8.44
2018-03-07T01:41:46.507Z,8.48
2018-03-07T01:42:46.517Z,8.44
2018-03-07T01:43:46.531Z,8.51
2018-03-07T01:44:46.519Z,8.54
2018-03-07T01:45:46.533Z,8.55
2018-03-07T01:46:46.542Z,8.60
2018-03-07T01:47:46.545Z,8.62
2018-03-07T01:48:46.543Z,8.58
2018-03-07T01:49:46.542Z,8.62
2018-03-07T01:50:46.600Z,8.63
2018-03-07T01:51:46.558Z,8.72
2018-03-07T01:52:46.555Z,8.62
2018-03-07T01:53:46.614Z,8.51
2018-03-07T01:54:46.598Z,8.60
2018-03-07T01:55:46.567Z,8.58
2018-03-07T01:56:46.570Z,8.58
2018-03-07T01:57:46.573Z,8.58
2018-03-07T01:58:46.573Z,8.62
2018-03-07T01:59:46.581Z,8.55
2018-03-07T02:00:46.591Z,8.57
2018-03-07T02:01:46.587Z,8.57
2018-03-07T02:02:46.593Z,8.63
2018-03-07T02:03:46.599Z,8.63
2018-03-07T02:04:46.591Z,8.57
2018-03-07T02:05:46.597Z,8.60
2018-03-07T02:06:46.604Z,8.75
2018-03-07T02:07:46.610Z,8.71
2018-03-07T02:08:46.605Z,8.73
2018-03-07T02:09:46.612Z,8.76
2018-03-07T02:10:46.620Z,8.79
2018-03-07T02:11:46.618Z,8.75
2018-03-07T02:12:46.628Z,8.75
2018-03-07T02:13:46.653Z,8.78
2018-03-07T02:14:46.652Z,8.69
2018-03-07T02:15:46.634Z,8.66
2018-03-07T02:16:46.653Z,8.68
2018-03-07T02:17:46.650Z,8.69
2018-03-07T02:18:46.657Z,8.69
2018-03-07T02:19:46.668Z,8.73
2018-03-07T02:20:46.702Z,8.68
2018-03-07T02:21:46.653Z,8.69
2018-03-07T02:22:46.663Z,8.71
2018-03-07T02:23:46.672Z,8.71
2018-03-07T02:24:46.712Z,8.63
2018-03-07T02:25:46.678Z,8.62
2018-03-07T02:26:46.681Z,8.63
2018-03-07T02:27:46.692Z,8.57
2018-03-07T02:28:46.693Z,8.58
2018-03-07T02:29:46.684Z,8.55
2018-03-07T02:30:46.694Z,8.51
2018-03-07T02:31:46.700Z,8.47
2018-03-07T02:32:46.700Z,8.40
2018-03-07T02:33:46.704Z,8.29
2018-03-07T02:34:46.778Z,8.40
2018-03-07T02:35:46.718Z,8.36
2018-03-07T02:36:46.717Z,8.37
2018-03-07T02:37:46.719Z,8.37
2018-03-07T02:38:46.726Z,8.44
2018-03-07T02:39:46.721Z,8.48
2018-03-07T02:40:46.729Z,8.57
2018-03-07T02:41:46.742Z,8.58
2018-03-07T02:42:46.742Z,8.55
2018-03-07T02:43:46.739Z,8.60
2018-03-07T02:44:46.748Z,8.62
2018-03-07T02:45:46.754Z,8.60
2018-03-07T02:46:46.748Z,8.60
2018-03-07T02:47:46.750Z,8.57
2018-03-07T02:48:46.757Z,8.57
2018-03-07T02:49:46.759Z,8.53
2018-03-07T02:50:46.771Z,8.47
2018-03-07T02:51:46.773Z,8.58
2018-03-07T02:52:46.803Z,8.60
2018-03-07T02:53:46.779Z,8.55
2018-03-07T02:54:46.786Z,8.51
2018-03-07T02:55:46.820Z,8.51
2018-03-07T02:56:46.786Z,8.51
2018-03-07T02:57:46.788Z,8.40
2018-03-07T02:58:46.798Z,8.42
2018-03-07T02:59:46.805Z,8.47
2018-03-07T03:00:46.805Z,8.40
2018-03-07T03:01:46.807Z,8.45
2018-03-07T03:02:46.813Z,8.45
2018-03-07T03:03:46.820Z,8.42
2018-03-07T03:04:46.918Z,8.45
2018-03-07T03:05:46.822Z,8.45
2018-03-07T03:06:46.826Z,8.36
2018-03-07T03:07:46.837Z,8.30
2018-03-07T03:08:46.848Z,8.26
2018-03-07T03:09:46.837Z,8.12
2018-03-07T03:10:47.573Z,8.04
2018-03-07T03:11:46.844Z,8.11
2018-03-07T03:12:46.848Z,7.94
2018-03-07T03:13:46.853Z,7.93
2018-03-07T03:14:46.849Z,8.04
2018-03-07T03:15:46.857Z,8.10
2018-03-07T03:16:46.858Z,7.93
2018-03-07T03:17:46.881Z,7.92
2018-03-07T03:18:46.862Z,7.97
2018-03-07T03:19:46.872Z,7.94
2018-03-07T03:20:46.872Z,7.90
2018-03-07T03:21:46.888Z,7.92
2018-03-07T03:22:46.883Z,7.90
2018-03-07T03:23:46.883Z,7.96
2018-03-07T03:24:46.893Z,7.97
2018-03-07T03:25:46.895Z,7.85
2018-03-07T03:26:46.920Z,7.92
2018-03-07T03:27:46.897Z,7.93
2018-03-07T03:28:46.905Z,7.89
2018-03-07T03:29:46.905Z,7.93
2018-03-07T03:30:46.972Z,7.92
2018-03-07T03:31:46.916Z,7.90
2018-03-07T03:32:46.922Z,7.90
2018-03-07T03:33:46.924Z,7.90
2018-03-07T03:34:46.931Z,7.79
2018-03-07T03:35:46.928Z,7.85
2018-03-07T03:36:46.938Z,7.81
2018-03-07T03:37:46.952Z,7.69
2018-03-07T03:38:46.931Z,7.71
2018-03-07T03:39:46.959Z,7.59
2018-03-07T03:40:46.946Z,7.56
2018-03-07T03:41:46.960Z,7.62
2018-03-07T03:42:46.942Z,7.60
2018-03-07T03:43:46.968Z,7.50
2018-03-07T03:44:46.955Z,7.49
2018-03-07T03:45:46.965Z,7.50
2018-03-07T03:46:46.976Z,7.58
2018-03-07T03:47:46.988Z,7.67
2018-03-07T03:48:46.967Z,7.58
2018-03-07T03:49:46.974Z,7.66
2018-03-07T03:50:46.978Z,7.66
2018-03-07T03:51:46.984Z,7.55
2018-03-07T03:52:46.990Z,7.69
2018-03-07T03:53:46.990Z,7.66
2018-03-07T03:54:46.993Z,7.72
2018-03-07T03:55:47.022Z,7.67
2018-03-07T03:56:47.024Z,7.74
2018-03-07T03:57:47.005Z,7.67
2018-03-07T03:58:47.015Z,7.67
2018-03-07T03:59:47.017Z,7.72
2018-03-07T04:00:47.017Z,7.77
2018-03-07T04:01:47.006Z,7.74
2018-03-07T04:02:47.014Z,7.74
2018-03-07T04:03:47.014Z,7.75
2018-03-07T04:04:47.023Z,7.75
2018-03-07T04:05:47.018Z,7.77
2018-03-07T04:06:47.032Z,7.78
2018-03-07T04:07:47.027Z,7.77
2018-03-07T04:08:47.039Z,7.79
2018-03-07T04:09:47.044Z,7.77
2018-03-07T04:10:47.056Z,7.74
2018-03-07T04:11:47.056Z,7.82
2018-03-07T04:12:47.045Z,7.74
2018-03-07T04:13:47.051Z,7.79
2018-03-07T04:14:47.078Z,7.78
2018-03-07T04:15:47.055Z,7.79
2018-03-07T04:16:47.067Z,7.79
2018-03-07T04:17:47.058Z,7.84
2018-03-07T04:18:47.078Z,7.84
2018-03-07T04:19:47.078Z,7.87
2018-03-07T04:20:47.076Z,7.78
2018-03-07T04:21:47.079Z,7.85
2018-03-07T04:22:47.095Z,7.81
2018-03-07T04:23:47.096Z,7.75
2018-03-07T04:24:47.121Z,7.77
2018-03-07T04:25:47.112Z,7.74
2018-03-07T04:26:47.091Z,7.77
2018-03-07T04:27:47.103Z,7.74
2018-03-07T04:28:47.111Z,7.72
2018-03-07T04:29:47.113Z,7.71
2018-03-07T04:30:47.103Z,7.74
2018-03-07T04:31:47.207Z,7.71
2018-03-07T04:32:47.136Z,7.71
2018-03-07T04:33:47.191Z,7.67
2018-03-07T04:34:47.160Z,7.62
2018-03-07T04:35:47.122Z,7.67
2018-03-07T04:36:47.127Z,7.62
2018-03-07T04:37:47.131Z,7.74
2018-03-07T04:38:47.136Z,7.59
2018-03-07T04:39:47.135Z,7.59
2018-03-07T04:40:47.147Z,7.66
2018-03-07T04:41:47.140Z,7.66
2018-03-07T04:42:47.154Z,7.59
2018-03-07T04:43:48.097Z,7.67
2018-03-07T04:44:47.153Z,7.67
2018-03-07T04:45:47.160Z,7.63
2018-03-07T04:46:47.168Z,7.71
2018-03-07T04:47:47.172Z,7.66
2018-03-07T04:48:47.171Z,7.72
2018-03-07T04:49:47.174Z,7.63
2018-03-07T04:50:47.185Z,7.66
2018-03-07T04:51:47.225Z,7.71
2018-03-07T04:52:47.241Z,7.67
2018-03-07T04:53:47.186Z,7.69
2018-03-07T04:54:47.192Z,7.55
2018-03-07T04:55:47.191Z,7.66
2018-03-07T04:56:47.196Z,7.58
2018-03-07T04:57:47.212Z,7.53
2018-03-07T04:58:47.205Z,7.58
2018-03-07T04:59:47.206Z,7.66
2018-03-07T05:00:47.209Z,7.62
2018-03-07T05:01:47.211Z,7.63
2018-03-07T05:02:47.290Z,7.69
2018-03-07T05:03:48.100Z,7.67
2018-03-07T05:04:47.219Z,7.67
2018-03-07T05:05:47.227Z,7.58
2018-03-07T05:06:47.248Z,7.69
2018-03-07T05:07:47.229Z,7.59
2018-03-07T05:08:47.238Z,7.63
2018-03-07T05:09:47.244Z,7.67
2018-03-07T05:10:47.238Z,7.58
2018-03-07T05:11:47.241Z,7.63
2018-03-07T05:12:47.246Z,7.75
2018-03-07T05:13:47.254Z,7.58
2018-03-07T05:14:47.259Z,7.60
2018-03-07T05:15:47.258Z,7.67
2018-03-07T05:16:47.267Z,7.56
2018-03-07T05:17:47.258Z,7.74
2018-03-07T05:18:47.280Z,7.66
2018-03-07T05:19:47.271Z,7.66
2018-03-07T05:20:47.271Z,7.53
2018-03-07T05:21:47.276Z,7.56
2018-03-07T05:22:47.288Z,7.58
2018-03-07T05:23:47.289Z,7.58
2018-03-07T05:24:47.294Z,7.59
2018-03-07T05:25:47.292Z,7.56
2018-03-07T05:26:47.292Z,7.56
2018-03-07T05:27:47.291Z,7.59
2018-03-07T05:28:47.346Z,7.56
2018-03-07T05:29:47.304Z,7.56
2018-03-07T05:30:47.311Z,7.59
2018-03-07T05:31:47.316Z,7.67
2018-03-07T05:32:47.328Z,7.71
2018-03-07T05:33:47.316Z,7.72
2018-03-07T05:34:47.320Z,7.69
2018-03-07T05:35:47.325Z,7.72
2018-03-07T05:36:48.818Z,7.75
2018-03-07T05:37:47.329Z,7.67
2018-03-07T05:38:47.328Z,7.67
2018-03-07T05:39:47.339Z,7.72
2018-03-07T05:40:47.336Z,7.67
2018-03-07T05:41:47.344Z,7.71
2018-03-07T05:42:47.341Z,7.75
2018-03-07T05:43:47.348Z,7.74
2018-03-07T05:44:47.345Z,7.75
2018-03-07T05:45:47.356Z,7.77
2018-03-07T05:46:47.359Z,7.72
2018-03-07T05:47:47.367Z,7.71
2018-03-07T05:48:47.359Z,7.72
2018-03-07T05:49:47.374Z,7.63
2018-03-07T05:50:47.377Z,7.59
2018-03-07T05:51:47.407Z,7.60
2018-03-07T05:52:47.388Z,7.56
2018-03-07T05:53:47.389Z,7.45
2018-03-07T05:54:47.421Z,7.58
2018-03-07T05:55:47.401Z,7.45
2018-03-07T05:56:47.407Z,7.42
2018-03-07T05:57:47.402Z,7.45
2018-03-07T05:58:47.486Z,7.47
2018-03-07T05:59:47.418Z,7.34
2018-03-07T06:00:47.440Z,7.42
2018-03-07T06:01:47.429Z,7.34
2018-03-07T06:02:47.413Z,7.31
2018-03-07T06:03:47.417Z,7.31
2018-03-07T06:04:47.425Z,7.38
2018-03-07T06:05:47.542Z,7.37
2018-03-07T06:06:47.422Z,7.34
2018-03-07T06:07:47.422Z,7.42
2018-03-07T06:08:47.432Z,7.27
2018-03-07T06:09:47.505Z,7.32
2018-03-07T06:10:47.448Z,7.32
2018-03-07T06:11:47.445Z,7.35
2018-03-07T06:12:47.444Z,7.34
2018-03-07T06:13:47.440Z,7.41
2018-03-07T06:14:47.456Z,7.34
2018-03-07T06:15:47.450Z,7.34
2018-03-07T06:16:47.455Z,7.37
2018-03-07T06:17:47.462Z,7.32
2018-03-07T06:18:47.477Z,7.45
2018-03-07T06:19:47.463Z,7.38
2018-03-07T06:20:47.470Z,7.45
2018-03-07T06:21:47.506Z,7.42
2018-03-07T06:23:40.391Z,7.50
2018-03-07T06:24:40.359Z,7.52
2018-03-07T06:26:33.355Z,7.59
2018-03-07T06:27:33.319Z,7.58
2018-03-07T06:29:26.278Z,7.56
2018-03-07T06:30:26.282Z,7.53
2018-03-07T06:32:19.263Z,7.69
2018-03-07T06:33:19.233Z,7.74
2018-03-07T06:35:12.208Z,7.56
2018-03-07T06:36:12.191Z,7.59
2018-03-07T06:38:05.203Z,7.69
2018-03-07T06:39:05.150Z,7.59
2018-03-07T06:40:58.105Z,7.75
2018-03-07T06:41:58.106Z,7.67
2018-03-07T06:43:51.084Z,7.74
2018-03-07T06:44:51.070Z,7.77
2018-03-07T06:45:51.071Z,7.75
2018-03-07T06:46:51.072Z,7.75
2018-03-07T06:47:51.126Z,7.89
2018-03-07T06:48:51.082Z,7.82
2018-03-07T06:49:51.106Z,7.82
2018-03-07T06:50:51.100Z,7.85
2018-03-07T06:51:51.101Z,7.92
2018-03-07T06:52:51.104Z,7.87
2018-03-07T06:53:51.089Z,8.00
2018-03-07T06:54:51.128Z,7.93
2018-03-07T06:55:51.112Z,8.04
2018-03-07T06:56:51.102Z,8.10
2018-03-07T06:57:51.109Z,8.03
2018-03-07T06:58:51.112Z,8.03
2018-03-07T06:59:51.117Z,8.18
2018-03-07T07:00:51.127Z,8.10
2018-03-07T07:01:51.151Z,8.07
2018-03-07T07:02:51.122Z,8.12
2018-03-07T07:04:44.141Z,8.25
2018-03-07T07:05:44.060Z,8.29
2018-03-07T07:07:37.516Z,8.28
2018-03-07T07:08:37.014Z,8.33
2018-03-07T07:10:42.755Z,8.25
2018-03-07T07:11:42.666Z,8.29
2018-03-07T07:13:35.633Z,8.35
2018-03-07T07:14:35.642Z,8.47
2018-03-07T07:16:28.621Z,8.58
2018-03-07T07:17:28.584Z,8.63
2018-03-07T07:19:21.561Z,8.84
2018-03-07T07:20:21.536Z,8.84
2018-03-07T07:21:21.546Z,8.90
2018-03-07T07:23:14.547Z,8.97
2018-03-07T07:24:14.503Z,9.52
2018-03-07T07:26:07.471Z,10.58
2018-03-07T07:27:07.468Z,11.24
2018-03-07T07:29:00.456Z,12.05
2018-03-07T07:30:00.420Z,12.31
2018-03-07T07:31:53.410Z,12.69
2018-03-07T07:32:53.378Z,13.24
2018-03-07T07:34:46.367Z,14.13
2018-03-07T07:35:46.348Z,14.69
2018-03-07T07:37:39.310Z,14.98
2018-03-07T07:38:39.323Z,14.17
2018-03-07T07:40:32.270Z,12.87
2018-03-07T07:41:32.342Z,12.51
2018-03-07T07:43:25.387Z,11.72
2018-03-07T07:44:25.442Z,11.49
2018-03-07T07:46:18.351Z,11.17
2018-03-07T07:47:18.319Z,10.96
2018-03-07T07:49:11.226Z,10.96
2018-03-07T07:50:11.231Z,11.77
2018-03-07T07:52:04.199Z,13.71
2018-03-07T07:53:04.176Z,14.38
2018-03-07T07:54:04.187Z,14.87
2018-03-07T07:55:04.196Z,15.48
2018-03-07T07:56:04.199Z,15.82
2018-03-07T07:57:04.229Z,16.18
2018-03-07T07:58:04.223Z,16.42
2018-03-07T07:59:04.222Z,16.86
2018-03-07T08:00:04.221Z,17.26
2018-03-07T08:01:04.238Z,17.38
2018-03-07T08:02:04.244Z,17.62
2018-03-07T08:03:04.250Z,17.95
2018-03-07T08:04:04.277Z,18.21
2018-03-07T08:05:04.268Z,18.29
2018-03-07T08:06:04.273Z,18.49
2018-03-07T08:07:04.286Z,18.59
2018-03-07T08:08:04.330Z,18.77
2018-03-07T08:09:04.319Z,18.86
2018-03-07T08:10:04.314Z,18.95
2018-03-07T08:11:04.325Z,18.95
2018-03-07T08:12:04.380Z,19.02
2018-03-07T08:13:04.363Z,19.17
2018-03-07T08:14:04.362Z,19.38
2018-03-07T08:15:04.372Z,19.43
2018-03-07T08:16:04.395Z,19.55
2018-03-07T08:17:04.400Z,19.46
2018-03-07T08:18:04.463Z,19.53
2018-03-07T08:19:04.424Z,19.66
2018-03-07T08:20:04.438Z,19.79
2018-03-07T08:21:04.458Z,19.87
2018-03-07T08:22:04.501Z,19.76
2018-03-07T08:23:04.483Z,19.93
2018-03-07T08:24:04.506Z,19.84
2018-03-07T08:25:04.528Z,19.53
2018-03-07T08:26:04.525Z,19.33
2018-03-07T08:27:04.541Z,19.25
2018-03-07T08:28:04.551Z,19.20
2018-03-07T08:29:04.568Z,18.83
2018-03-07T08:30:04.580Z,18.91
2018-03-07T08:31:04.623Z,19.01
2018-03-07T08:32:04.614Z,19.13
2018-03-07T08:33:04.634Z,19.13
2018-03-07T08:34:04.641Z,19.42
2018-03-07T08:35:04.664Z,19.54
2018-03-07T08:36:04.677Z,19.47
2018-03-07T08:37:04.700Z,19.60
2018-03-07T08:38:04.708Z,19.68
2018-03-07T08:39:04.735Z,19.43
2018-03-07T08:40:04.741Z,19.42
2018-03-07T08:41:04.764Z,19.40
2018-03-07T08:42:04.779Z,19.33
2018-03-07T08:43:04.797Z,19.17
2018-03-07T08:44:04.816Z,18.94
2018-03-07T08:45:04.837Z,19.10
2018-03-07T08:46:04.847Z,19.21
2018-03-07T08:47:04.868Z,19.46
2018-03-07T08:48:04.886Z,19.53
2018-03-07T08:49:04.900Z,19.75
2018-03-07T08:50:04.924Z,19.88
2018-03-07T08:51:04.945Z,19.91
2018-03-07T08:52:04.955Z,19.84
2018-03-07T08:53:04.976Z,19.58
2018-03-07T08:54:04.992Z,19.38
2018-03-07T08:55:05.650Z,19.42
2018-03-07T08:56:06.392Z,19.32
2018-03-07T08:57:05.054Z,19.48
2018-03-07T08:58:05.068Z,19.69
2018-03-07T08:59:05.247Z,19.57
2018-03-07T09:00:05.106Z,19.70
2018-03-07T09:01:05.140Z,19.73
2018-03-07T09:02:05.189Z,19.69
2018-03-07T09:03:05.201Z,19.66
2018-03-07T09:04:05.213Z,19.66
2018-03-07T09:05:05.203Z,19.84
2018-03-07T09:06:05.235Z,20.09
2018-03-07T09:07:05.241Z,20.27
2018-03-07T09:08:05.265Z,20.43
2018-03-07T09:09:05.276Z,20.53
2018-03-07T09:10:05.298Z,20.64
2018-03-07T09:11:05.336Z,20.96
2018-03-07T09:12:05.345Z,20.90
2018-03-07T09:13:05.366Z,20.89
2018-03-07T09:14:05.385Z,20.90
2018-03-07T09:15:05.405Z,20.93
2018-03-07T09:16:05.475Z,20.61
2018-03-07T09:17:05.444Z,20.64
2018-03-07T09:18:05.455Z,20.49
2018-03-07T09:19:05.498Z,20.65
2018-03-07T09:20:05.495Z,20.64
2018-03-07T09:21:05.523Z,20.69
2018-03-07T09:22:05.556Z,20.90
2018-03-07T09:23:05.556Z,20.76
2018-03-07T09:24:05.591Z,20.68
2018-03-07T09:25:05.604Z,20.53
2018-03-07T09:26:05.627Z,20.28
2018-03-07T09:27:05.646Z,20.28
2018-03-07T09:28:05.670Z,20.15
2018-03-07T09:29:05.711Z,20.00
2018-03-07T09:30:05.760Z,20.13
2018-03-07T09:31:05.727Z,20.15
2018-03-07T09:32:05.755Z,19.93
2018-03-07T09:33:05.774Z,19.98
2018-03-07T09:34:05.791Z,19.88
2018-03-07T09:35:05.821Z,20.21
2018-03-07T09:36:05.836Z,20.08
2018-03-07T09:37:05.857Z,20.02
2018-03-07T09:38:05.902Z,20.09
2018-03-07T09:39:05.904Z,20.13
2018-03-07T09:40:05.914Z,19.78
2018-03-07T09:41:06.796Z,19.76
2018-03-07T09:42:05.961Z,19.70
2018-03-07T09:43:05.989Z,19.43
2018-03-07T09:44:05.999Z,19.32
2018-03-07T09:45:06.018Z,19.06
2018-03-07T09:46:06.044Z,18.95
2018-03-07T09:47:06.069Z,18.47
2018-03-07T09:48:06.090Z,18.28
2018-03-07T09:49:06.106Z,18.36
2018-03-07T09:50:06.130Z,18.15
2018-03-07T09:51:06.158Z,18.27
2018-03-07T09:52:06.169Z,17.97
2018-03-07T09:53:06.225Z,17.57
2018-03-07T09:54:06.219Z,17.38
2018-03-07T09:55:06.244Z,17.28
2018-03-07T09:56:06.341Z,17.54
2018-03-07T09:57:06.331Z,17.70
2018-03-07T09:58:06.336Z,17.94
2018-03-07T09:59:06.314Z,17.82
2018-03-07T10:00:06.327Z,17.71
2018-03-07T10:01:06.350Z,17.70
2018-03-07T10:02:06.409Z,17.81
2018-03-07T10:03:06.409Z,17.78
2018-03-07T10:04:06.407Z,17.74
2018-03-07T10:05:06.432Z,17.63
2018-03-07T10:06:06.453Z,17.66
2018-03-07T10:07:06.523Z,17.91
2018-03-07T10:08:06.536Z,18.12
2018-03-07T10:09:06.519Z,18.33
2018-03-07T10:10:06.537Z,18.39
2018-03-07T10:11:06.583Z,18.54
2018-03-07T10:12:06.570Z,18.31
2018-03-07T10:13:06.594Z,18.07
2018-03-07T10:14:06.623Z,17.99
2018-03-07T10:15:06.633Z,18.06
2018-03-07T10:16:06.653Z,18.12
2018-03-07T10:17:06.673Z,18.36
2018-03-07T10:18:06.709Z,18.43
2018-03-07T10:19:06.736Z,18.74
2018-03-07T10:20:06.730Z,19.02
2018-03-07T10:21:06.755Z,19.32
2018-03-07T10:22:06.784Z,19.42
2018-03-07T10:23:06.790Z,19.51
2018-03-07T10:24:06.822Z,19.50
2018-03-07T10:25:06.835Z,19.24
2018-03-07T10:26:06.871Z,19.10
2018-03-07T10:27:06.902Z,19.02
2018-03-07T10:28:06.901Z,19.02
2018-03-07T10:29:06.920Z,19.24
2018-03-07T10:30:06.937Z,19.29
2018-03-07T10:31:06.952Z,19.39
2018-03-07T10:32:06.982Z,19.31
2018-03-07T10:33:06.997Z,19.25
2018-03-07T10:34:07.029Z,19.39
2018-03-07T10:35:07.053Z,19.39
2018-03-07T10:36:07.059Z,19.36
2018-03-07T10:37:07.085Z,19.20
2018-03-07T10:38:07.101Z,19.31
2018-03-07T10:39:07.122Z,19.43
2018-03-07T10:40:07.137Z,19.57
2018-03-07T10:41:07.185Z,19.68
2018-03-07T10:42:07.190Z,19.48
2018-03-07T10:43:07.209Z,19.39
2018-03-07T10:44:07.220Z,19.40
2018-03-07T10:45:07.246Z,19.40
2018-03-07T10:46:07.270Z,19.46
2018-03-07T10:47:07.298Z,19.55
2018-03-07T10:48:07.305Z,19.57
2018-03-07T10:49:07.329Z,19.42
2018-03-07T10:50:07.342Z,19.31
2018-03-07T10:51:07.363Z,19.25
2018-03-07T10:52:07.382Z,19.18
2018-03-07T10:53:07.405Z,19.08
2018-03-07T10:54:07.424Z,19.10
2018-03-07T10:55:07.444Z,19.24
2018-03-07T10:56:07.464Z,19.24
2018-03-07T10:57:07.488Z,19.31
2018-03-07T10:58:07.519Z,19.28
2018-03-07T10:59:07.515Z,19.11
2018-03-07T11:00:07.537Z,19.05
2018-03-07T11:01:07.560Z,19.02
2018-03-07T11:02:07.584Z,19.13
2018-03-07T11:03:07.593Z,18.94
2018-03-07T11:04:07.620Z,18.99
2018-03-07T11:05:07.643Z,18.73
2018-03-07T11:06:07.678Z,18.50
2018-03-07T11:07:07.680Z,18.43
2018-03-07T11:08:07.724Z,18.39
2018-03-07T11:09:07.736Z,18.49
2018-03-07T11:10:07.808Z,18.52
2018-03-07T11:11:07.785Z,18.67
2018-03-07T11:12:07.788Z,18.79
2018-03-07T11:13:07.838Z,18.91
2018-03-07T11:14:07.879Z,19.05
2018-03-07T11:15:07.864Z,19.05
2018-03-07T11:16:07.875Z,19.14
2018-03-07T11:17:07.903Z,18.87
2018-03-07T11:18:07.898Z,18.74
2018-03-07T11:19:07.934Z,18.77
2018-03-07T11:20:07.924Z,18.84
2018-03-07T11:21:08.001Z,18.83
2018-03-07T11:22:08.030Z,18.61
2018-03-07T11:23:08.038Z,18.50
2018-03-07T11:24:08.001Z,18.44
2018-03-07T11:25:08.077Z,18.54
2018-03-07T11:26:08.140Z,18.46
2018-03-07T11:27:08.128Z,18.36
2018-03-07T11:28:08.154Z,18.19
2018-03-07T11:29:08.080Z,18.25
2018-03-07T11:30:08.137Z,18.21
2018-03-07T11:31:08.116Z,18.06
2018-03-07T11:32:08.129Z,18.06
2018-03-07T11:33:08.151Z,18.06
2018-03-07T11:34:08.164Z,18.19
2018-03-07T11:35:08.185Z,18.27
2018-03-07T11:36:08.204Z,18.34
2018-03-07T11:37:08.224Z,18.36
2018-03-07T11:38:08.236Z,18.43
2018-03-07T11:39:08.252Z,18.36
2018-03-07T11:40:08.394Z,18.46
2018-03-07T11:41:09.295Z,18.47
2018-03-07T11:42:08.304Z,18.43
2018-03-07T11:43:08.317Z,18.44
2018-03-07T11:44:08.338Z,18.31
2018-03-07T11:45:08.363Z,18.27
2018-03-07T11:46:08.485Z,18.25
2018-03-07T11:47:08.395Z,18.13
2018-03-07T11:48:08.401Z,18.07
2018-03-07T11:49:08.423Z,17.99
2018-03-07T11:50:08.445Z,18.07
2018-03-07T11:51:08.460Z,18.07
2018-03-07T11:52:09.275Z,18.04
2018-03-07T11:53:08.485Z,17.91
2018-03-07T11:54:08.502Z,17.76
2018-03-07T11:55:08.537Z,17.71
2018-03-07T11:56:08.578Z,17.85
2018-03-07T11:57:08.540Z,17.82
2018-03-07T11:58:08.560Z,18.03
2018-03-07T11:59:08.579Z,18.02
2018-03-07T12:00:08.596Z,18.06
2018-03-07T12:01:08.616Z,18.09
2018-03-07T12:02:08.626Z,18.07
2018-03-07T12:03:09.284Z,18.03
2018-03-07T12:04:08.655Z,18.02
2018-03-07T12:05:08.680Z,17.74
2018-03-07T12:06:08.678Z,17.71
2018-03-07T12:07:08.700Z,17.62
2018-03-07T12:08:08.705Z,17.55
2018-03-07T12:09:08.721Z,17.48
2018-03-07T12:10:08.738Z,17.54
2018-03-07T12:11:08.752Z,17.44
2018-03-07T12:12:08.804Z,17.40
2018-03-07T12:13:08.833Z,17.18
2018-03-07T12:14:08.914Z,17.14
2018-03-07T12:15:08.815Z,17.06
2018-03-07T12:16:08.828Z,16.88
2018-03-07T12:17:08.850Z,16.92
2018-03-07T12:18:08.869Z,16.83
2018-03-07T12:19:08.885Z,16.85
2018-03-07T12:20:08.882Z,16.85
2018-03-07T12:21:08.891Z,16.90
2018-03-07T12:22:08.892Z,17.06
2018-03-07T12:23:08.922Z,17.07
2018-03-07T12:24:08.916Z,17.18
2018-03-07T12:25:08.933Z,17.28
2018-03-07T12:26:08.947Z,17.23
2018-03-07T12:27:08.956Z,17.20
2018-03-07T12:28:09.022Z,17.26
2018-03-07T12:29:08.982Z,17.18
2018-03-07T12:30:08.986Z,17.28
2018-03-07T12:31:09.000Z,17.25
2018-03-07T12:32:09.007Z,17.18
2018-03-07T12:33:09.030Z,17.20
2018-03-07T12:34:09.037Z,17.20
2018-03-07T12:35:09.046Z,17.06
2018-03-07T12:36:09.058Z,17.07
2018-03-07T12:37:09.116Z,16.75
2018-03-07T12:38:09.084Z,16.65
2018-03-07T12:39:09.094Z,16.63
2018-03-07T12:40:09.096Z,16.63
2018-03-07T12:41:09.121Z,16.68
2018-03-07T12:42:09.122Z,16.65
2018-03-07T12:43:09.129Z,16.56
2018-03-07T12:44:09.136Z,16.58
2018-03-07T12:45:09.143Z,16.60
2018-03-07T12:46:09.160Z,16.65
2018-03-07T12:47:09.167Z,16.68
2018-03-07T12:48:09.173Z,16.63
2018-03-07T12:49:09.181Z,16.60
2018-03-07T12:50:09.195Z,16.59
2018-03-07T12:51:09.210Z,16.68
2018-03-07T12:52:09.221Z,16.60
2018-03-07T12:53:09.219Z,16.56
2018-03-07T12:54:09.236Z,16.55
2018-03-07T12:55:09.251Z,16.73
2018-03-07T12:56:09.245Z,16.81
2018-03-07T12:57:09.260Z,16.75
2018-03-07T12:58:09.272Z,16.86
2018-03-07T12:59:09.310Z,16.83
2018-03-07T13:00:09.293Z,16.75
2018-03-07T13:01:09.294Z,16.75
2018-03-07T13:02:09.306Z,16.71
2018-03-07T13:03:11.292Z,16.71
2018-03-07T13:04:09.326Z,16.63
2018-03-07T13:05:09.336Z,16.65
2018-03-07T13:06:09.346Z,16.71
2018-03-07T13:07:09.351Z,16.75
2018-03-07T13:08:09.363Z,16.80
2018-03-07T13:09:09.414Z,16.75
2018-03-07T13:10:09.475Z,16.74
2018-03-07T13:11:09.391Z,16.58
2018-03-07T13:12:09.402Z,16.55
2018-03-07T13:13:09.409Z,16.25
2018-03-07T13:14:09.409Z,16.25
2018-03-07T13:15:09.428Z,16.25
2018-03-07T13:16:09.451Z,16.18
2018-03-07T13:17:09.587Z,16.04
2018-03-07T13:18:09.504Z,15.97
2018-03-07T13:19:09.578Z,15.97
2018-03-07T13:20:09.694Z,15.92
2018-03-07T13:21:09.534Z,15.79
2018-03-07T13:22:09.508Z,15.84
2018-03-07T13:23:09.568Z,15.84
2018-03-07T13:24:09.581Z,15.74
2018-03-07T13:25:09.505Z,15.64
2018-03-07T13:26:09.572Z,15.61
2018-03-07T13:27:09.526Z,15.49
2018-03-07T13:28:09.531Z,15.54
2018-03-07T13:29:09.543Z,15.57